Time;durP1;ratioP1;P1;durP2;ratioP2;P2;SDS_P1;SDS_P2;PMS_P1;PMS_P2;Temp;Humidity;BMP_temperature;BMP_pressure;BME280_temperature;BME280_humidity;BME280_pressure;Samples;Min_cycle;Max_cycle;Signal;HPM_P1;HPM_P2
2022/01/04 00:01:20;;;;;;;2.33;0.85;;;;;;;9.02;100.00;98061.56;5105879;28;20048;-78
2022/01/04 00:03:47;;;;;;;2.92;0.85;;;;;;;9.08;100.00;98053.66;5109714;28;20039;-78
2022/01/04 00:06:14;;;;;;;2.63;0.75;;;;;;;9.04;100.00;98047.81;5106099;28;20058;-78
2022/01/04 00:08:43;;;;;;;1.48;0.57;;;;;;;9.11;100.00;98045.13;5111132;28;20044;-78
2022/01/04 00:11:16;;;;;;;2.03;0.80;;;;;;;9.12;100.00;98033.25;5093020;28;20055;-78
2022/01/04 00:13:44;;;;;;;3.72;0.80;;;;;;;9.21;100.00;98035.59;5095176;28;20442;-78
2022/01/04 00:16:11;;;;;;;8.45;0.90;;;;;;;9.12;100.00;98031.38;5106170;28;20052;-78
2022/01/04 00:18:38;;;;;;;1.58;0.60;;;;;;;9.19;100.00;98026.78;5109374;28;20096;-78
2022/01/04 00:21:05;;;;;;;0.80;0.60;;;;;;;9.25;100.00;98019.72;5093604;28;20048;-78
2022/01/04 00:23:32;;;;;;;0.98;0.40;;;;;;;9.24;100.00;98018.03;5105405;28;20406;-78
2022/01/04 00:26:01;;;;;;;1.00;0.70;;;;;;;9.26;100.00;98021.41;5114757;28;20062;-78
2022/01/04 00:28:28;;;;;;;2.95;0.80;;;;;;;9.13;100.00;97997.78;5113977;27;20051;-78
2022/01/04 00:30:55;;;;;;;4.07;0.75;;;;;;;9.23;100.00;98010.97;5102858;28;20133;-78
2022/01/04 00:33:22;;;;;;;1.48;0.63;;;;;;;9.21;100.00;98005.75;5105716;28;20044;-78
2022/01/04 00:35:49;;;;;;;1.17;0.68;;;;;;;9.17;100.00;97985.50;5111780;28;20066;-78
2022/01/04 00:38:16;;;;;;;1.45;0.50;;;;;;;9.19;100.00;97996.16;5114572;28;20047;-78
2022/01/04 00:40:43;;;;;;;1.27;0.60;;;;;;;9.19;100.00;97994.25;5114400;27;20047;-78
2022/01/04 00:43:11;;;;;;;1.42;0.63;;;;;;;9.13;100.00;97983.41;5106648;28;20128;-78
2022/01/04 00:45:38;;;;;;;2.45;0.70;;;;;;;9.23;100.00;97986.56;5106193;28;20051;-78
2022/01/04 00:50:51;;;;;;;1.52;0.55;;;;;;;9.18;100.00;97967.34;5101654;28;20051;-78
2022/01/04 00:53:18;;;;;;;4.00;0.70;;;;;;;9.20;100.00;97959.88;5096980;28;20487;-78
2022/01/04 00:55:45;;;;;;;2.55;0.80;;;;;;;9.20;100.00;97955.25;5109120;28;20036;-78
2022/01/04 00:58:14;;;;;;;1.17;0.88;;;;;;;9.20;100.00;97959.88;5114789;27;20058;-78
2022/01/04 01:00:41;;;;;;;3.42;0.70;;;;;;;9.27;100.00;97962.56;5110922;27;20047;-78
2022/01/04 01:03:09;;;;;;;4.00;0.75;;;;;;;9.21;100.00;97946.09;5110038;28;20058;-78
2022/01/04 01:05:35;;;;;;;1.05;0.70;;;;;;;9.24;100.00;97957.56;5109038;28;20051;-78
2022/01/04 01:08:04;;;;;;;0.75;0.60;;;;;;;9.29;100.00;97938.78;5102347;28;20048;-78
2022/01/04 01:13:14;;;;;;;2.33;0.70;;;;;;;9.27;100.00;97930.03;5112548;27;20044;-78
2022/01/04 01:15:44;;;;;;;1.45;0.93;;;;;;;9.23;100.00;97916.06;5102314;28;20410;-78
2022/01/04 01:18:12;;;;;;;2.45;0.80;;;;;;;9.18;100.00;97911.25;5096640;28;20044;-78
2022/01/04 01:20:39;;;;;;;0.55;0.50;;;;;;;9.25;100.00;97916.69;5098397;27;20044;-78
2022/01/04 01:23:06;;;;;;;1.35;0.65;;;;;;;9.27;100.00;97913.75;5111240;28;20047;-78
2022/01/04 01:25:33;;;;;;;1.67;0.60;;;;;;;9.28;100.00;97920.88;5094362;28;20051;-78
2022/01/04 01:28:00;;;;;;;0.73;0.73;;;;;;;9.19;100.00;97904.78;5094961;28;20036;-78
2022/01/04 01:30:30;;;;;;;5.57;0.75;;;;;;;9.19;100.00;97901.25;5095802;28;20048;-78
2022/01/04 01:32:57;;;;;;;0.52;0.52;;;;;;;9.25;100.00;97903.13;5094171;28;20645;-78
2022/01/04 01:35:24;;;;;;;0.85;0.85;;;;;;;9.26;100.00;97890.38;5094786;28;20036;-78
2022/01/04 01:37:51;;;;;;;2.22;0.88;;;;;;;9.22;100.00;97895.41;5111777;28;20435;-78
2022/01/04 01:40:17;;;;;;;3.13;0.95;;;;;;;9.24;100.00;97890.59;5107537;28;20051;-78
2022/01/04 01:42:44;;;;;;;0.93;0.50;;;;;;;9.24;100.00;97881.63;5094368;28;20048;-78
2022/01/04 01:45:16;;;;;;;2.85;0.82;;;;;;;9.12;100.00;97867.84;5114188;28;20047;-78
2022/01/04 01:47:44;;;;;;;0.50;0.50;;;;;;;9.14;100.00;97842.22;5113424;28;20051;-78
2022/01/04 01:50:13;;;;;;;5.35;0.90;;;;;;;9.19;100.00;97855.16;5111858;28;20051;-78
2022/01/04 01:52:41;;;;;;;1.48;0.80;;;;;;;9.13;100.00;97842.41;5101005;28;20050;-78
2022/01/04 01:55:09;;;;;;;3.38;0.73;;;;;;;8.92;100.00;97827.19;5107566;28;20047;-78
2022/01/04 01:57:36;;;;;;;0.60;0.60;;;;;;;8.94;100.00;97825.09;5103616;28;20051;-78
2022/01/04 02:00:05;;;;;;;2.70;0.88;;;;;;;8.97;100.00;97813.84;5095257;28;20498;-78
2022/01/04 02:02:32;;;;;;;0.50;0.50;;;;;;;8.90;100.00;97810.28;5093397;28;20519;-78
2022/01/04 02:05:01;;;;;;;1.85;0.68;;;;;;;8.84;100.00;97810.06;5104654;28;20101;-78
2022/01/04 02:07:28;;;;;;;2.80;0.90;;;;;;;8.88;100.00;97823.22;5093106;28;20491;-78
2022/01/04 02:10:03;;;;;;;2.65;0.70;;;;;;;8.93;100.00;97815.31;5097649;28;20049;-78
2022/01/04 02:12:33;;;;;;;1.20;0.80;;;;;;;8.82;100.00;97803.19;5110073;28;20051;-78
2022/01/04 02:15:00;;;;;;;0.73;0.65;;;;;;;8.89;100.00;97800.50;5108566;28;20051;-79
2022/01/04 02:17:28;;;;;;;1.05;1.00;;;;;;;8.88;100.00;97794.22;5098524;28;20406;-79
2022/01/04 02:19:57;;;;;;;1.20;0.90;;;;;;;8.74;100.00;97758.16;5100265;28;20044;-79
2022/01/04 02:22:25;;;;;;;3.83;0.77;;;;;;;8.85;100.00;97781.94;5093311;28;20418;-78
2022/01/04 02:24:52;;;;;;;1.48;0.75;;;;;;;8.79;100.00;97761.09;5102361;28;20063;-78
2022/01/04 02:27:20;;;;;;;1.38;0.90;;;;;;;8.92;100.00;97775.69;5108608;28;20051;-78
2022/01/04 02:29:48;;;;;;;2.95;0.95;;;;;;;8.99;100.00;97765.69;5106412;28;20051;-79
2022/01/04 02:32:15;;;;;;;3.05;0.80;;;;;;;8.96;100.00;97757.97;5092795;28;20054;-78
2022/01/04 02:34:47;;;;;;;1.17;0.60;;;;;;;8.92;100.00;97741.28;5101791;28;20036;-78
2022/01/04 02:37:19;;;;;;;1.13;0.80;;;;;;;8.86;100.00;97751.06;5098276;28;20058;-78
2022/01/04 02:39:46;;;;;;;2.58;0.85;;;;;;;8.85;100.00;97729.59;5110809;28;20048;-78
2022/01/04 02:42:15;;;;;;;3.78;0.90;;;;;;;8.82;100.00;97728.16;5097598;28;20058;-78
2022/01/04 02:44:42;;;;;;;1.58;1.00;;;;;;;8.91;100.00;97738.78;5111804;28;20046;-78
2022/01/04 02:47:09;;;;;;;0.88;0.88;;;;;;;8.95;100.00;97723.78;5109642;28;20061;-78
2022/01/04 02:49:36;;;;;;;0.93;0.77;;;;;;;8.82;100.00;97697.50;5097952;28;20043;-78
2022/01/04 02:52:03;;;;;;;2.20;1.25;;;;;;;8.82;100.00;97692.94;5100450;28;20053;-78
2022/01/04 02:54:32;;;;;;;2.35;1.00;;;;;;;8.86;100.00;97680.59;5100989;28;20051;-78
2022/01/04 02:56:58;;;;;;;2.72;1.02;;;;;;;8.86;100.00;97677.06;5112830;28;20039;-79
2022/01/04 02:59:26;;;;;;;1.33;0.88;;;;;;;8.89;100.00;97686.66;5104145;28;20044;-78
2022/01/04 03:01:53;;;;;;;1.13;0.95;;;;;;;8.83;100.00;97669.38;5104309;28;20054;-78
2022/01/04 03:04:21;;;;;;;3.85;2.00;;;;;;;8.91;100.00;97669.13;5097089;28;20047;-78
2022/01/04 03:06:49;;;;;;;2.00;1.00;;;;;;;8.78;100.00;97658.34;5092233;28;20460;-78
2022/01/04 03:09:17;;;;;;;1.25;0.82;;;;;;;8.77;100.00;97654.78;5105378;28;20051;-78
2022/01/04 03:11:45;;;;;;;1.83;1.10;;;;;;;8.93;100.00;97666.25;5092228;28;20052;-79
2022/01/04 03:14:12;;;;;;;1.35;1.10;;;;;;;8.86;100.00;97660.81;5091523;28;20044;-78
2022/01/04 03:16:39;;;;;;;3.00;1.10;;;;;;;8.85;100.00;97654.56;5109863;28;20066;-78
2022/01/04 03:19:07;;;;;;;1.73;1.17;;;;;;;8.80;100.00;97651.66;5107927;28;20043;-78
2022/01/04 03:21:38;;;;;;;3.15;1.27;;;;;;;8.83;100.00;97655.81;5100391;28;20079;-78
2022/01/04 03:24:07;;;;;;;3.78;1.27;;;;;;;8.81;100.00;97639.78;5099808;28;20502;-78
2022/01/04 03:26:35;;;;;;;2.28;1.10;;;;;;;8.75;100.00;97643.31;5111226;28;20040;-78
2022/01/04 03:29:05;;;;;;;2.15;1.15;;;;;;;8.75;100.00;97637.09;5106145;28;20051;-79
2022/01/04 03:31:32;;;;;;;;;;;;;;;8.86;100.00;97639.97;5093162;28;20407;-78
2022/01/04 03:33:59;;;;;;;2.85;1.20;;;;;;;8.83;100.00;97639.56;5110772;28;19926;-78
2022/01/04 03:36:27;;;;;;;2.05;1.17;;;;;;;8.74;100.00;97625.41;5103049;28;20055;-78
2022/01/04 03:38:56;;;;;;;2.17;1.30;;;;;;;8.69;100.00;97627.91;5107186;28;20051;-78
2022/01/04 03:41:24;;;;;;;9.55;1.50;;;;;;;8.75;100.00;97626.25;5110780;28;20133;-78
2022/01/04 03:43:52;;;;;;;2.10;1.35;;;;;;;8.73;100.00;97606.63;5091479;28;20510;-78
2022/01/04 03:46:20;;;;;;;1.42;1.20;;;;;;;8.76;100.00;97603.50;5091627;28;20052;-78
2022/01/04 03:48:47;;;;;;;1.73;1.23;;;;;;;8.72;100.00;97596.88;5090639;28;20044;-79
2022/01/04 03:51:14;;;;;;;1.42;1.20;;;;;;;8.71;100.00;97597.91;5105659;28;20044;-79
2022/01/04 03:53:41;;;;;;;4.95;1.17;;;;;;;8.70;100.00;97597.06;5102993;28;20036;-79
2022/01/04 03:56:08;;;;;;;1.65;1.10;;;;;;;8.73;100.00;97579.53;5116560;28;20438;-78
2022/01/04 03:58:36;;;;;;;2.25;1.00;;;;;;;8.70;100.00;97566.44;5109941;28;20059;-79
2022/01/04 04:01:03;;;;;;;2.22;1.23;;;;;;;8.68;100.00;97566.63;5112834;28;20384;-79
2022/01/04 04:03:31;;;;;;;2.15;1.25;;;;;;;8.69;100.00;97571.03;5114349;28;20051;-78
2022/01/04 04:05:58;;;;;;;1.92;1.30;;;;;;;8.66;100.00;97574.97;5095801;28;20044;-79
2022/01/04 04:08:25;;;;;;;3.50;1.33;;;;;;;8.65;100.00;97565.19;5106424;28;20051;-79
2022/01/04 04:10:52;;;;;;;1.88;1.23;;;;;;;8.72;100.00;97553.53;5107442;28;20051;-78
2022/01/04 04:13:19;;;;;;;3.35;1.40;;;;;;;8.68;100.00;97561.22;5095968;28;20048;-78
2022/01/04 04:15:46;;;;;;;3.47;1.20;;;;;;;8.57;100.00;97541.03;5114167;28;20051;-79
2022/01/04 04:18:16;;;;;;;2.35;1.35;;;;;;;8.68;100.00;97550.38;5102660;28;20047;-79
2022/01/04 04:20:45;;;;;;;3.92;1.42;;;;;;;8.66;100.00;97547.06;5097128;28;20048;-78
2022/01/04 04:23:12;;;;;;;2.47;1.20;;;;;;;8.69;100.00;97541.22;5101857;28;20147;-78
2022/01/04 04:25:40;;;;;;;2.30;1.38;;;;;;;8.61;100.00;97542.28;5110100;28;20145;-78
2022/01/04 04:28:08;;;;;;;2.78;1.63;;;;;;;8.61;100.00;97534.16;5095245;28;20048;-78
2022/01/04 04:30:35;;;;;;;2.25;1.10;;;;;;;8.65;100.00;97524.53;5097768;28;20044;-78
2022/01/04 04:33:02;;;;;;;2.30;1.25;;;;;;;8.44;100.00;97505.84;5115756;28;20048;-79
2022/01/04 04:35:30;;;;;;;3.20;1.42;;;;;;;8.56;100.00;97519.59;5110017;28;20037;-78
2022/01/04 04:37:59;;;;;;;3.58;1.40;;;;;;;8.58;100.00;97514.78;5095213;28;20105;-78
2022/01/04 04:40:29;;;;;;;3.05;1.23;;;;;;;8.47;100.00;97508.97;5101056;28;20120;-78
2022/01/04 04:42:56;;;;;;;1.40;1.20;;;;;;;8.52;100.00;97499.38;5098759;28;20515;-78
2022/01/04 04:45:24;;;;;;;2.22;1.10;;;;;;;8.57;100.00;97502.28;5101401;28;20044;-79
2022/01/04 04:47:51;;;;;;;2.35;1.25;;;;;;;8.46;100.00;97488.34;5103599;27;20059;-79
2022/01/04 04:50:18;;;;;;;3.28;1.17;;;;;;;8.60;100.00;97491.03;5099655;28;20052;-79
2022/01/04 04:52:45;;;;;;;2.47;1.23;;;;;;;8.57;100.00;97497.69;5111911;28;20122;-79
2022/01/04 04:55:13;;;;;;;3.08;1.05;;;;;;;8.52;100.00;97488.53;5104296;28;20479;-78
2022/01/04 04:57:40;;;;;;;1.65;1.27;;;;;;;8.54;100.00;97486.47;5109446;28;20039;-79
2022/01/04 05:00:09;;;;;;;3.63;1.17;;;;;;;8.53;100.00;97480.19;5110658;28;20051;-78
2022/01/04 05:02:36;;;;;;;1.23;1.02;;;;;;;8.59;100.00;97481.22;5115339;28;20449;-78
2022/01/04 05:05:04;;;;;;;2.20;1.00;;;;;;;8.56;100.00;97462.69;5098668;28;20051;-78
2022/01/04 05:07:30;;;;;;;1.40;0.90;;;;;;;8.58;100.00;97463.31;5099644;28;20404;-78
2022/01/04 05:09:57;;;;;;;2.58;1.08;;;;;;;8.62;100.00;97459.13;5096730;28;20075;-78
2022/01/04 05:12:26;;;;;;;0.80;0.70;;;;;;;8.58;100.00;97456.03;5103379;28;20048;-78
2022/01/04 05:14:53;;;;;;;2.65;1.00;;;;;;;8.54;100.00;97446.66;5109405;28;20478;-78
2022/01/04 05:17:20;;;;;;;1.48;1.05;;;;;;;8.55;100.00;97434.78;5104171;28;20339;-78
2022/01/04 05:19:47;;;;;;;1.77;0.90;;;;;;;8.57;100.00;97442.72;5106259;27;20055;-78
2022/01/04 05:22:14;;;;;;;3.33;0.93;;;;;;;8.59;100.00;97440.59;5103056;28;20047;-78
2022/01/04 05:24:40;;;;;;;1.50;1.02;;;;;;;8.61;100.00;97452.03;5095550;28;20044;-78
2022/01/04 05:27:07;;;;;;;3.30;0.80;;;;;;;8.55;100.00;97434.78;5094669;28;20075;-78
2022/01/04 05:29:36;;;;;;;1.42;1.02;;;;;;;8.67;100.00;97440.34;5105151;28;20051;-78
2022/01/04 05:32:03;;;;;;;1.17;0.80;;;;;;;8.66;100.00;97422.44;5102366;28;20058;-78
2022/01/04 05:34:30;;;;;;;1.73;0.80;;;;;;;8.65;100.00;97407.22;5112309;28;20039;-78
2022/01/04 05:36:57;;;;;;;0.80;0.80;;;;;;;8.71;100.00;97414.50;5114152;28;20055;-78
2022/01/04 05:39:23;;;;;;;2.65;0.85;;;;;;;8.73;100.00;97408.88;5096915;28;20052;-78
2022/01/04 05:41:50;;;;;;;2.85;0.80;;;;;;;8.74;100.00;97411.34;5106018;28;20039;-78
2022/01/04 05:44:17;;;;;;;1.73;0.88;;;;;;;8.77;100.00;97410.91;5100425;28;20055;-78
2022/01/04 05:46:45;;;;;;;5.90;1.10;;;;;;;8.74;100.00;97394.28;5093792;28;20055;-78
2022/01/04 05:49:12;;;;;;;4.45;0.88;;;;;;;8.64;100.00;97382.03;5107531;28;20043;-80
2022/01/04 05:51:40;;;;;;;2.58;0.80;;;;;;;8.67;100.00;97378.03;5106645;27;20051;-79
2022/01/04 05:54:06;;;;;;;5.43;0.95;;;;;;;8.56;100.00;97367.91;5105925;28;20079;-78
2022/01/04 05:56:33;;;;;;;1.08;0.82;;;;;;;8.62;100.00;97359.72;5107979;28;20487;-79
2022/01/04 05:59:00;;;;;;;2.95;0.80;;;;;;;8.77;100.00;97367.56;5105608;28;20044;-80
2022/01/04 06:01:28;;;;;;;1.55;0.80;;;;;;;8.78;100.00;97365.72;5113257;27;20491;-81
2022/01/04 06:03:56;;;;;;;1.45;0.88;;;;;;;8.70;100.00;97355.94;5106735;28;20048;-81
2022/01/04 06:06:23;;;;;;;1.60;1.00;;;;;;;8.71;100.00;97363.03;5113784;28;20081;-81
2022/01/04 06:08:51;;;;;;;1.98;0.90;;;;;;;8.75;100.00;97366.16;5104617;28;20044;-80
2022/01/04 06:11:56;;;;;;;1.10;0.80;;;;;;;8.80;100.00;97352.75;5094565;28;20050;-80
2022/01/04 06:17:09;;;;;;;2.63;0.90;;;;;;;8.67;100.00;97340.13;5093457;28;20063;-81
2022/01/04 06:19:38;;;;;;;4.05;1.02;;;;;;;8.72;100.00;97342.19;5112574;28;20048;-80
2022/01/04 06:22:05;;;;;;;3.85;1.02;;;;;;;8.65;100.00;97329.50;5100215;28;20044;-80
2022/01/04 06:24:32;;;;;;;1.25;1.00;;;;;;;8.70;100.00;97326.13;5103654;28;20055;-80
2022/01/04 06:27:00;;;;;;;1.23;1.05;;;;;;;8.81;100.00;97321.91;5109935;28;20086;-81
2022/01/04 06:29:27;;;;;;;1.00;0.90;;;;;;;8.75;100.00;97309.25;5098630;28;20048;-81
2022/01/04 06:31:54;;;;;;;1.27;0.88;;;;;;;8.76;100.00;97306.31;5092726;28;20056;-80
2022/01/04 06:34:21;;;;;;;2.10;1.00;;;;;;;8.71;100.00;97303.41;5100915;28;20324;-81
2022/01/04 06:36:49;;;;;;;1.48;0.98;;;;;;;8.78;100.00;97297.97;5112010;28;20052;-81
2022/01/04 06:39:16;;;;;;;1.52;1.30;;;;;;;8.77;100.00;97290.88;5109100;28;20056;-81
2022/01/04 06:41:43;;;;;;;2.22;0.98;;;;;;;8.78;100.00;97289.84;5093482;28;20503;-81
2022/01/04 06:44:10;;;;;;;2.10;0.80;;;;;;;8.80;100.00;97290.44;5096883;28;20055;-81
2022/01/04 06:46:38;;;;;;;0.60;0.60;;;;;;;8.86;100.00;97284.97;5111475;28;20052;-81
2022/01/04 06:49:05;;;;;;;1.92;1.10;;;;;;;8.81;100.00;97286.69;5106636;28;20471;-80
2022/01/04 06:51:32;;;;;;;1.05;0.93;;;;;;;8.87;100.00;97288.53;5103512;28;20047;-81
2022/01/04 06:54:01;;;;;;;2.53;1.13;;;;;;;8.92;100.00;97285.16;5105733;28;20050;-80
2022/01/04 06:56:27;;;;;;;1.70;1.20;;;;;;;8.84;100.00;97284.38;5112245;28;20130;-81
2022/01/04 06:58:54;;;;;;;1.95;1.00;;;;;;;8.87;100.00;97285.81;5094305;28;20055;-81
2022/01/04 07:01:22;;;;;;;1.23;0.77;;;;;;;8.88;100.00;97283.94;5112645;27;20055;-81
2022/01/04 07:03:49;;;;;;;2.17;1.00;;;;;;;8.75;100.00;97264.00;5111156;28;20051;-81
2022/01/04 07:06:15;;;;;;;2.67;0.73;;;;;;;8.75;100.00;97260.47;5104908;28;20043;-81
2022/01/04 07:08:43;;;;;;;1.50;1.00;;;;;;;8.83;100.00;97276.47;5104780;28;20043;-81
2022/01/04 07:11:11;;;;;;;3.50;0.88;;;;;;;8.80;100.00;97268.78;5096253;28;20052;-81
2022/01/04 07:13:38;;;;;;;1.50;0.98;;;;;;;8.75;100.00;97260.47;5092628;28;20399;-81
2022/01/04 07:16:06;;;;;;;1.60;1.20;;;;;;;8.70;100.00;97246.75;5102636;28;20054;-81
2022/01/04 07:18:33;;;;;;;0.93;0.70;;;;;;;8.77;100.00;97256.47;5112703;28;20056;-81
2022/01/04 07:21:00;;;;;;;1.13;0.90;;;;;;;8.82;100.00;97248.53;5096688;28;20043;-81
2022/01/04 07:23:27;;;;;;;1.50;0.85;;;;;;;8.79;100.00;97249.00;5092175;28;20044;-81
2022/01/04 07:25:54;;;;;;;3.10;1.20;;;;;;;8.78;100.00;97247.31;5108100;28;20054;-81
2022/01/04 07:28:23;;;;;;;2.92;1.50;;;;;;;8.81;100.00;97248.75;5101693;28;20047;-81
2022/01/04 07:30:50;;;;;;;2.05;1.17;;;;;;;8.76;100.00;97243.16;5099330;28;20044;-81
2022/01/04 07:33:18;;;;;;;1.60;1.10;;;;;;;8.77;100.00;97239.41;5099485;28;20048;-81
2022/01/04 07:35:44;;;;;;;2.45;1.50;;;;;;;8.83;100.00;97214.97;5103759;28;20169;-81
2022/01/04 07:38:12;;;;;;;3.17;1.95;;;;;;;8.78;100.00;97227.53;5096711;28;20362;-81
2022/01/04 07:40:39;;;;;;;2.95;1.50;;;;;;;8.92;100.00;97233.66;5097315;28;20048;-81
2022/01/04 07:43:06;;;;;;;2.90;1.83;;;;;;;9.01;100.00;97230.44;5102527;28;20051;-81
2022/01/04 07:45:35;;;;;;;3.05;1.60;;;;;;;8.82;100.00;97229.56;5103499;28;20052;-81
2022/01/04 07:48:05;;;;;;;8.82;3.65;;;;;;;8.87;100.00;97212.66;5106897;28;20411;-81
2022/01/04 07:50:32;;;;;;;5.45;1.83;;;;;;;8.96;100.00;97216.72;5097456;28;20105;-81
2022/01/04 07:52:59;;;;;;;3.67;1.90;;;;;;;8.86;100.00;97211.81;5097816;28;20515;-81
2022/01/04 07:55:26;;;;;;;1.95;1.25;;;;;;;9.01;100.00;97207.94;5096550;28;20052;-81
2022/01/04 07:57:53;;;;;;;3.08;1.50;;;;;;;9.00;100.00;97203.56;5119792;27;20047;-81
2022/01/04 08:00:20;;;;;;;8.45;1.60;;;;;;;9.06;100.00;97189.09;5111118;28;20058;-81
2022/01/04 08:02:49;;;;;;;2.10;1.35;;;;;;;9.03;100.00;97195.81;5102738;28;20071;-81
2022/01/04 08:05:16;;;;;;;1.85;1.10;;;;;;;9.02;100.00;97191.44;5095301;28;20074;-81
2022/01/04 08:07:42;;;;;;;2.10;1.30;;;;;;;8.99;100.00;97182.94;5103096;28;20494;-81
2022/01/04 08:10:11;;;;;;;6.63;4.80;;;;;;;9.02;100.00;97193.34;5097251;28;20507;-81
2022/01/04 08:12:38;;;;;;;5.13;3.70;;;;;;;9.08;100.00;97180.75;5099921;28;20047;-81
2022/01/04 08:15:05;;;;;;;3.92;3.47;;;;;;;9.16;100.00;97175.06;5102520;28;20055;-81
2022/01/04 08:17:32;;;;;;;6.90;1.70;;;;;;;9.09;100.00;97185.13;5102615;28;20380;-81
2022/01/04 08:20:02;;;;;;;2.92;2.22;;;;;;;9.12;100.00;97192.81;5104338;28;20043;-81
2022/01/04 08:22:32;;;;;;;4.38;1.90;;;;;;;9.07;100.00;97179.94;5108515;27;20086;-81
2022/01/04 08:25:00;;;;;;;2.78;2.13;;;;;;;9.12;100.00;97190.09;5114597;27;20051;-81
2022/01/04 08:27:28;;;;;;;3.90;2.65;;;;;;;8.98;100.00;97173.16;5129640;27;20043;-82
2022/01/04 08:29:54;;;;;;;4.35;1.73;;;;;;;9.07;100.00;97171.81;5102818;27;20044;-81
2022/01/04 08:32:22;;;;;;;2.13;1.48;;;;;;;9.14;100.00;97174.47;5106952;28;21512;-81
2022/01/04 08:34:50;;;;;;;3.33;1.45;;;;;;;9.17;100.00;97163.97;5114797;27;20070;-81
2022/01/04 08:37:19;;;;;;;1.70;1.10;;;;;;;9.15;100.00;97149.00;5104033;28;20514;-82
2022/01/04 08:39:46;;;;;;;5.05;1.10;;;;;;;9.15;100.00;97155.25;5107537;28;20416;-81
2022/01/04 08:42:13;;;;;;;1.50;1.20;;;;;;;9.24;100.00;97166.63;5100526;28;20399;-81
2022/01/04 08:44:40;;;;;;;1.67;0.88;;;;;;;9.25;100.00;97164.75;5101726;28;20079;-81
2022/01/04 08:47:08;;;;;;;3.28;1.17;;;;;;;9.28;100.00;97156.16;5102639;28;20134;-81
2022/01/04 08:49:35;;;;;;;1.40;1.02;;;;;;;9.23;100.00;97147.84;5103181;28;20052;-81
2022/01/04 08:52:03;;;;;;;2.13;1.10;;;;;;;9.30;100.00;97143.19;5104443;28;20047;-81
2022/01/04 08:54:31;;;;;;;2.65;0.93;;;;;;;9.32;100.00;97139.22;5105904;28;20048;-81
2022/01/04 08:56:59;;;;;;;1.27;1.05;;;;;;;9.39;100.00;97145.41;5104875;28;20040;-82
2022/01/04 08:59:28;;;;;;;1.02;0.90;;;;;;;9.46;100.00;97134.44;5100570;28;20044;-82
2022/01/04 09:01:56;;;;;;;6.40;1.17;;;;;;;9.48;100.00;97120.66;5108226;28;20048;-82
2022/01/04 09:04:23;;;;;;;2.10;1.05;;;;;;;9.53;100.00;97121.63;5114050;28;20043;-81
2022/01/04 09:06:50;;;;;;;1.42;0.98;;;;;;;9.60;100.00;97123.44;5108058;28;20098;-81
2022/01/04 09:09:17;;;;;;;2.25;1.27;;;;;;;9.65;100.00;97132.56;5111035;27;20050;-81
2022/01/04 09:11:45;;;;;;;1.23;0.90;;;;;;;9.55;100.00;97113.28;5110343;28;20047;-82
2022/01/04 09:14:24;;;;;;;4.63;1.35;;;;;;;9.63;100.00;97123.78;5115042;27;20048;-81
2022/01/04 09:19:36;;;;;;;3.00;1.00;;;;;;;9.72;100.00;97129.75;5113877;28;20050;-81
2022/01/04 09:22:03;;;;;;;2.08;0.88;;;;;;;9.81;100.00;97122.94;5102717;28;20052;-81
2022/01/04 09:24:30;;;;;;;2.83;1.38;;;;;;;9.88;100.00;97112.81;5101488;28;20052;-81
2022/01/04 09:26:59;;;;;;;2.25;0.90;;;;;;;9.87;100.00;97108.44;5110036;27;20055;-81
2022/01/04 09:29:26;;;;;;;0.93;0.90;;;;;;;9.90;100.00;97110.69;5114117;27;20050;-81
2022/01/04 09:31:55;;;;;;;1.63;1.15;;;;;;;9.95;100.00;97103.75;5112582;27;20054;-81
2022/01/04 09:34:22;;;;;;;1.52;1.08;;;;;;;9.84;100.00;97094.50;5103567;27;20048;-81
2022/01/04 09:36:49;;;;;;;1.77;1.00;;;;;;;9.88;100.00;97082.16;5108897;28;20036;-81
2022/01/04 09:39:19;;;;;;;2.83;1.30;;;;;;;9.86;100.00;97086.97;5106632;28;20052;-81
2022/01/04 09:41:46;;;;;;;1.75;0.90;;;;;;;9.92;100.00;97081.44;5103852;28;20491;-81
2022/01/04 09:44:15;;;;;;;1.88;0.80;;;;;;;9.87;100.00;97067.72;5098299;28;20044;-81
2022/01/04 09:46:43;;;;;;;0.77;0.65;;;;;;;9.90;100.00;97080.84;5094423;28;20038;-82
2022/01/04 09:49:11;;;;;;;3.35;0.80;;;;;;;9.94;100.00;97078.50;5096485;28;20048;-81
2022/01/04 09:51:40;;;;;;;6.32;1.27;;;;;;;9.98;100.00;97078.84;5105130;27;20043;-81
2022/01/04 09:54:07;;;;;;;2.20;0.93;;;;;;;10.02;100.00;97090.91;5113374;28;20040;-81
2022/01/04 09:56:35;;;;;;;1.08;0.65;;;;;;;9.99;100.00;97080.50;5110732;28;20062;-81
2022/01/04 09:59:02;;;;;;;1.70;0.80;;;;;;;10.09;100.00;97091.66;5111692;28;20055;-81
2022/01/04 10:01:35;;;;;;;1.95;0.68;;;;;;;10.05;100.00;97082.28;5105759;28;20040;-81
2022/01/04 10:04:02;;;;;;;3.05;0.90;;;;;;;10.01;100.00;97081.94;5093808;28;20076;-81
2022/01/04 10:06:29;;;;;;;2.50;1.05;;;;;;;10.14;100.00;97080.91;5102266;27;20043;-81
2022/01/04 10:08:59;;;;;;;0.80;0.80;;;;;;;10.13;100.00;97090.09;5114100;27;20047;-81
2022/01/04 10:11:31;;;;;;;1.65;1.10;;;;;;;10.08;100.00;97076.41;5111521;28;20062;-81
2022/01/04 10:14:26;;;;;;;5.25;1.05;;;;;;;10.15;100.00;97082.56;5099189;28;20119;-88
2022/01/04 10:16:57;;;;;;;1.77;0.90;;;;;;;10.08;100.00;97044.63;5108419;28;20134;-86
2022/01/04 10:19:31;;;;;;;2.72;2.22;;;;;;;10.28;100.00;97068.78;5092823;28;20138;-80
2022/01/04 10:22:23;;;;;;;3.00;1.02;;;;;;;10.19;100.00;97058.47;5091579;28;20059;-80
2022/01/04 10:25:08;;;;;;;0.82;0.65;;;;;;;10.25;100.00;97060.25;5113662;28;20479;-80
2022/01/04 10:27:37;;;;;;;1.23;0.77;;;;;;;10.24;100.00;97054.00;5113751;28;20047;-81
2022/01/04 10:30:12;;;;;;;3.45;1.10;;;;;;;10.18;100.00;97035.13;5095808;28;20052;-81
2022/01/04 10:32:49;;;;;;;0.85;0.63;;;;;;;10.21;100.00;97045.50;5104769;28;20047;-80
2022/01/04 10:35:38;;;;;;;1.58;0.82;;;;;;;10.23;100.00;97046.09;5114801;28;20054;-81
2022/01/04 10:38:14;;;;;;;0.90;0.57;;;;;;;10.25;100.00;97046.66;5100362;28;20124;-81
2022/01/04 10:40:44;;;;;;;0.88;0.73;;;;;;;10.25;100.00;97039.38;5114040;28;20499;-81
2022/01/04 10:43:12;;;;;;;;;;;;;;;10.37;100.00;97030.41;5104248;28;20616;-81
2022/01/04 10:45:42;;;;;;;2.05;0.98;;;;;;;10.39;100.00;97028.31;5095248;28;19927;-81
2022/01/04 10:48:22;;;;;;;1.77;1.00;;;;;;;10.35;100.00;97027.94;5098783;28;20451;-81
2022/01/04 10:50:50;;;;;;;4.63;1.23;;;;;;;10.37;100.00;97044.00;5093517;28;20040;-81
2022/01/04 10:53:24;;;;;;;1.70;1.02;;;;;;;10.39;100.00;97026.41;5107302;28;20506;-81
2022/01/04 10:55:55;;;;;;;2.17;0.90;;;;;;;10.40;100.00;97029.94;5111286;28;20051;-81
2022/01/04 10:58:27;;;;;;;1.67;1.13;;;;;;;10.29;100.00;97023.41;5107618;28;20044;-81
2022/01/04 11:00:57;;;;;;;2.75;0.88;;;;;;;10.41;100.00;97031.59;5113714;28;20388;-81
2022/01/04 11:03:29;;;;;;;2.10;0.85;;;;;;;10.43;100.00;97029.47;5100175;28;20442;-81
2022/01/04 11:05:58;;;;;;;1.30;0.88;;;;;;;10.53;100.00;97024.28;5093893;28;20411;-81
2022/01/04 11:08:25;;;;;;;3.00;1.00;;;;;;;10.47;100.00;97016.25;5092564;28;20052;-81
2022/01/04 11:10:53;;;;;;;1.33;0.93;;;;;;;10.47;100.00;97008.94;5093493;28;20048;-81
2022/01/04 11:13:21;;;;;;;2.47;1.00;;;;;;;10.52;100.00;97017.19;5093798;28;20062;-81
2022/01/04 11:15:48;;;;;;;2.75;1.00;;;;;;;10.43;100.00;97003.16;5093560;28;20071;-81
2022/01/04 11:18:15;;;;;;;1.30;0.90;;;;;;;10.48;100.00;97017.91;5093213;28;20118;-81
2022/01/04 11:20:44;;;;;;;3.33;0.95;;;;;;;10.46;100.00;97009.97;5093116;28;20415;-81
2022/01/04 11:23:13;;;;;;;1.38;1.00;;;;;;;10.53;100.00;97013.41;5092617;28;20070;-81
2022/01/04 11:25:43;;;;;;;1.17;0.80;;;;;;;10.50;100.00;97010.34;5093179;28;20055;-81
2022/01/04 11:28:13;;;;;;;2.08;1.23;;;;;;;10.49;100.00;97011.41;5092366;28;20487;-80
2022/01/04 11:30:52;;;;;;;6.75;2.70;;;;;;;10.46;100.00;97015.41;5111874;28;20054;-81
2022/01/04 11:33:26;;;;;;;2.55;1.45;;;;;;;10.53;100.00;97009.88;5112406;28;20051;-79
2022/01/04 11:35:56;;;;;;;2.33;1.33;;;;;;;10.47;100.00;96995.34;5114117;28;20044;-79
2022/01/04 11:38:34;;;;;;;2.97;1.60;;;;;;;10.58;100.00;96989.09;5104008;28;20048;-79
2022/01/04 11:41:01;;;;;;;8.60;1.80;;;;;;;10.51;100.00;96996.53;5093136;28;20044;-79
2022/01/04 11:43:30;;;;;;;2.90;1.75;;;;;;;10.59;100.00;96993.44;5095945;28;20044;-79
2022/01/04 11:45:57;;;;;;;2.77;1.47;;;;;;;10.49;100.00;96995.94;5113450;28;20052;-79
2022/01/04 11:48:29;;;;;;;1.95;1.00;;;;;;;10.46;100.00;97007.25;5104723;28;20081;-79